createdAt,value
2023-07-15T00:01:29.557Z,97.90
2023-07-15T00:03:56.947Z,122.65
2023-07-15T00:06:24.600Z,114.78
2023-07-15T00:08:52.239Z,88.25
2023-07-15T00:11:26.000Z,97.38
2023-07-15T00:13:52.511Z,106.32
2023-07-15T00:16:20.068Z,94.72
2023-07-15T00:18:46.570Z,96.13
2023-07-15T00:21:21.466Z,96.05
2023-07-15T00:23:51.091Z,120.65
2023-07-15T00:26:17.564Z,111.50
2023-07-15T00:28:44.036Z,111.63
2023-07-15T00:31:14.312Z,91.50
2023-07-15T00:33:41.401Z,464.60
2023-07-15T00:36:09.830Z,323.75
2023-07-15T00:38:36.297Z,1999.90
2023-07-15T00:41:03.061Z,1999.90
2023-07-15T00:43:59.370Z,1999.90
2023-07-15T00:46:50.618Z,1976.65
2023-07-15T00:49:21.245Z,1763.90
2023-07-15T00:52:11.863Z,1643.90
2023-07-15T00:54:42.855Z,1784.13
2023-07-15T00:57:09.834Z,1999.90
2023-07-15T00:59:39.856Z,1285.93
2023-07-15T01:02:06.667Z,1290.22
2023-07-15T01:04:33.127Z,1398.22
2023-07-15T01:06:59.611Z,1445.85
2023-07-15T01:09:26.181Z,1999.90
2023-07-15T01:11:52.828Z,1999.90
2023-07-15T01:14:19.302Z,1999.90
2023-07-15T01:16:48.754Z,1999.90
2023-07-15T01:19:19.614Z,1999.90
2023-07-15T01:21:52.578Z,1984.70
2023-07-15T01:24:20.108Z,1820.28
2023-07-15T01:26:47.634Z,1916.88
2023-07-15T01:29:14.649Z,1999.90
2023-07-15T01:31:43.070Z,1967.60
2023-07-15T01:34:09.679Z,1995.22
2023-07-15T01:36:36.172Z,1804.55
2023-07-15T01:39:03.227Z,1743.53
2023-07-15T01:41:29.699Z,1999.90
2023-07-15T01:43:56.132Z,1999.90
2023-07-15T01:46:22.572Z,1999.90
2023-07-15T01:48:49.370Z,1999.90
2023-07-15T01:51:15.859Z,1806.22
2023-07-15T01:53:42.308Z,1883.68
2023-07-15T01:56:08.746Z,1757.95
2023-07-15T01:58:35.198Z,1932.15
2023-07-15T02:01:01.703Z,1496.05
2023-07-15T02:03:28.385Z,1539.55
2023-07-15T02:05:54.914Z,1130.82
2023-07-15T02:08:23.612Z,1983.53
2023-07-15T02:10:50.624Z,1878.72
2023-07-15T02:13:17.176Z,1740.85
2023-07-15T02:15:43.715Z,1999.90
2023-07-15T02:18:10.210Z,1999.90
2023-07-15T02:20:39.081Z,1999.90
2023-07-15T02:23:05.599Z,1808.07
2023-07-15T02:25:33.227Z,1999.90
2023-07-15T02:27:59.710Z,1559.75
2023-07-15T02:30:27.100Z,1999.90
2023-07-15T02:32:56.033Z,1999.90
2023-07-15T02:35:22.751Z,1992.05
2023-07-15T02:37:50.193Z,1999.90
2023-07-15T02:40:18.084Z,1816.00
2023-07-15T02:42:44.529Z,1999.90
2023-07-15T02:45:13.117Z,1999.90
2023-07-15T02:47:42.497Z,1974.78
2023-07-15T02:50:10.289Z,1999.90
2023-07-15T02:52:38.270Z,1817.40
2023-07-15T02:55:07.954Z,1999.90
2023-07-15T02:57:34.815Z,1907.68
2023-07-15T03:00:01.866Z,1982.80
2023-07-15T03:02:31.257Z,1846.95
2023-07-15T03:04:57.753Z,1797.07
2023-07-15T03:07:24.266Z,1736.00
2023-07-15T03:09:50.735Z,1946.40
2023-07-15T03:12:17.194Z,1999.90
2023-07-15T03:14:43.947Z,1999.90
2023-07-15T03:17:11.857Z,1999.90
2023-07-15T03:19:38.719Z,1999.90
2023-07-15T03:22:06.110Z,1999.90
2023-07-15T03:24:33.236Z,1999.90
2023-07-15T03:26:59.660Z,1999.90
2023-07-15T03:29:26.461Z,1999.90
2023-07-15T03:31:52.908Z,1999.90
2023-07-15T03:34:20.549Z,1999.90
2023-07-15T03:36:47.006Z,1999.90
2023-07-15T03:39:13.464Z,1999.90
2023-07-15T03:41:39.951Z,1999.90
2023-07-15T03:44:06.409Z,1999.90
2023-07-15T03:46:33.066Z,1999.90
2023-07-15T03:48:59.541Z,1999.90
2023-07-15T03:51:26.043Z,1999.90
2023-07-15T03:53:52.486Z,1999.90
2023-07-15T03:56:18.974Z,1999.90
2023-07-15T03:58:45.426Z,1999.90
2023-07-15T04:01:12.204Z,1999.90
2023-07-15T04:03:38.974Z,1999.90
2023-07-15T04:06:05.470Z,1999.90
2023-07-15T04:08:31.886Z,1999.90
2023-07-15T04:10:58.380Z,98.25
2023-07-15T04:13:24.783Z,1332.88
2023-07-15T04:15:51.325Z,221.77
2023-07-15T04:18:17.920Z,173.25
2023-07-15T04:20:44.467Z,1983.25
2023-07-15T04:23:11.064Z,110.82
2023-07-15T04:25:37.584Z,97.43
2023-07-15T04:28:05.105Z,102.70
2023-07-15T04:30:31.646Z,103.10
2023-07-15T04:32:58.245Z,99.45
2023-07-15T04:35:24.782Z,83.57
2023-07-15T04:37:52.018Z,88.38
2023-07-15T04:40:18.550Z,78.32
2023-07-15T04:42:46.708Z,63.00
2023-07-15T04:45:13.520Z,68.88
2023-07-15T04:47:40.536Z,84.53
2023-07-15T04:50:07.240Z,79.18
2023-07-15T04:52:33.663Z,276.17
2023-07-15T04:55:00.384Z,126.90
2023-07-15T04:57:26.890Z,131.40
2023-07-15T04:59:53.716Z,141.52
2023-07-15T05:02:20.223Z,132.48
2023-07-15T05:04:46.680Z,157.68
2023-07-15T05:07:13.151Z,131.40
2023-07-15T05:09:40.325Z,142.48
2023-07-15T05:12:07.569Z,130.75
2023-07-15T05:14:35.306Z,117.28
2023-07-15T05:17:01.856Z,115.35
2023-07-15T05:19:28.333Z,118.55
2023-07-15T05:21:54.870Z,128.90
2023-07-15T05:24:21.312Z,100.20
2023-07-15T05:26:47.773Z,99.28
2023-07-15T05:29:14.257Z,86.57
2023-07-15T05:31:40.730Z,93.15
2023-07-15T05:34:07.261Z,105.88
2023-07-15T05:36:33.826Z,125.53
2023-07-15T05:39:00.284Z,96.75
2023-07-15T05:41:26.723Z,92.55
2023-07-15T05:43:53.168Z,105.70
2023-07-15T05:46:19.629Z,131.43
2023-07-15T05:48:48.320Z,104.60
2023-07-15T05:51:16.213Z,103.97
2023-07-15T05:53:44.236Z,110.18
2023-07-15T05:56:10.710Z,99.22
2023-07-15T05:58:37.199Z,89.85
2023-07-15T06:01:05.140Z,98.97
2023-07-15T06:03:31.946Z,104.95
2023-07-15T06:06:03.040Z,91.55
2023-07-15T06:08:30.058Z,97.40
2023-07-15T06:10:56.918Z,109.68
2023-07-15T06:13:23.487Z,140.52
2023-07-15T06:15:51.220Z,92.68
2023-07-15T06:18:18.339Z,96.53
2023-07-15T06:20:47.453Z,127.82
2023-07-15T06:23:14.362Z,102.22
2023-07-15T06:25:41.039Z,101.97
2023-07-15T06:28:07.525Z,130.68
2023-07-15T06:30:34.030Z,110.30
2023-07-15T06:33:00.701Z,110.75
2023-07-15T06:35:27.200Z,108.22
2023-07-15T06:37:54.770Z,90.45
2023-07-15T06:40:21.290Z,115.53
2023-07-15T06:42:47.855Z,109.15
2023-07-15T06:45:14.716Z,102.50
2023-07-15T06:47:41.392Z,101.45
2023-07-15T06:50:08.678Z,108.57
2023-07-15T06:52:35.124Z,159.95
2023-07-15T06:55:01.585Z,118.03
2023-07-15T06:57:29.454Z,137.05
2023-07-15T06:59:55.940Z,146.40
2023-07-15T07:02:22.765Z,112.80
2023-07-15T07:04:49.345Z,110.22
2023-07-15T07:07:16.015Z,193.50
2023-07-15T07:09:42.501Z,106.38
2023-07-15T07:12:08.969Z,214.35
2023-07-15T07:14:35.456Z,151.20
2023-07-15T07:17:01.918Z,138.63
2023-07-15T07:19:28.647Z,170.32
2023-07-15T07:21:55.193Z,135.25
2023-07-15T07:24:22.433Z,118.03
2023-07-15T07:26:50.141Z,144.07
2023-07-15T07:29:16.690Z,173.00
2023-07-15T07:31:43.129Z,148.68
2023-07-15T07:34:09.577Z,126.95
2023-07-15T07:36:36.016Z,112.55
2023-07-15T07:39:02.478Z,121.10
2023-07-15T07:41:28.933Z,119.55
2023-07-15T07:43:55.409Z,107.22
2023-07-15T07:46:21.916Z,123.72
2023-07-15T07:48:48.383Z,134.30
2023-07-15T07:51:15.021Z,120.82
2023-07-15T07:53:41.744Z,121.07
2023-07-15T07:56:12.202Z,113.40
2023-07-15T07:58:41.782Z,115.45
2023-07-15T08:01:08.225Z,112.80
2023-07-15T08:03:34.766Z,91.63
2023-07-15T08:06:01.398Z,108.22
2023-07-15T08:08:27.828Z,116.47
2023-07-15T08:10:54.471Z,130.63
2023-07-15T08:13:21.101Z,88.57
2023-07-15T08:15:47.627Z,100.90
2023-07-15T08:18:14.278Z,90.13
2023-07-15T08:20:43.740Z,97.85
2023-07-15T08:23:10.303Z,87.63
2023-07-15T08:25:39.001Z,95.38
2023-07-15T08:28:05.836Z,71.40
2023-07-15T08:30:32.442Z,87.60
2023-07-15T08:32:58.935Z,100.05
2023-07-15T08:35:25.441Z,104.35
2023-07-15T08:37:54.127Z,110.00
2023-07-15T08:40:22.602Z,117.30
2023-07-15T08:42:49.113Z,121.00
2023-07-15T08:45:15.604Z,105.03
2023-07-15T08:47:45.779Z,97.25
2023-07-15T08:50:13.692Z,88.60
2023-07-15T08:52:41.612Z,91.85
2023-07-15T08:55:09.572Z,116.60
2023-07-15T08:57:36.590Z,101.32
2023-07-15T09:00:10.851Z,99.13
2023-07-15T09:02:39.044Z,124.38
2023-07-15T09:05:09.985Z,116.57
2023-07-15T09:07:50.378Z,121.80
2023-07-15T09:10:16.946Z,409.73
2023-07-15T09:12:54.427Z,133.23
2023-07-15T09:15:21.413Z,548.65
2023-07-15T09:17:55.218Z,392.50
2023-07-15T09:20:24.710Z,81.13
2023-07-15T09:22:56.604Z,88.15
2023-07-15T09:25:23.762Z,114.15
2023-07-15T09:27:50.775Z,148.85
2023-07-15T09:30:18.310Z,108.47
2023-07-15T09:32:44.873Z,64.47
2023-07-15T09:35:11.554Z,55.22
2023-07-15T09:37:38.775Z,73.35
2023-07-15T09:40:09.894Z,58.13
2023-07-15T09:42:56.038Z,55.03
2023-07-15T09:45:36.161Z,84.80
2023-07-15T09:48:05.275Z,72.07
2023-07-15T09:50:34.042Z,65.88
2023-07-15T09:53:01.359Z,66.32
2023-07-15T09:55:32.773Z,94.32
2023-07-15T09:58:19.697Z,79.90
2023-07-15T10:00:48.394Z,122.97
2023-07-15T10:03:22.298Z,78.25
2023-07-15T10:05:49.042Z,101.97
2023-07-15T10:08:15.822Z,121.75
2023-07-15T10:10:42.962Z,87.95
2023-07-15T10:13:11.132Z,102.00
2023-07-15T10:15:38.810Z,120.43
2023-07-15T10:18:18.562Z,93.05
2023-07-15T10:20:55.610Z,333.63
2023-07-15T10:23:30.504Z,121.88
2023-07-15T10:26:07.646Z,75.32
2023-07-15T10:28:35.452Z,61.53
2023-07-15T10:31:16.233Z,107.15
2023-07-15T10:33:57.039Z,103.22
2023-07-15T10:36:37.024Z,94.53
2023-07-15T10:39:17.850Z,78.43
2023-07-15T10:41:53.898Z,80.75
2023-07-15T10:44:23.880Z,89.88
2023-07-15T10:47:03.632Z,88.78
2023-07-15T10:49:33.595Z,74.20
2023-07-15T10:52:00.468Z,109.07
2023-07-15T10:54:28.705Z,91.50
2023-07-15T10:56:55.785Z,86.32
2023-07-15T10:59:25.381Z,74.72
2023-07-15T11:01:51.893Z,118.88
2023-07-15T11:04:21.688Z,122.63
2023-07-15T11:06:48.312Z,100.47
2023-07-15T11:09:15.416Z,61.13
2023-07-15T11:11:41.908Z,99.80
2023-07-15T11:14:19.715Z,71.95
2023-07-15T11:16:46.441Z,102.70
2023-07-15T11:19:16.334Z,96.63
2023-07-15T11:21:46.196Z,113.00
2023-07-15T11:24:13.763Z,110.13
2023-07-15T11:26:41.302Z,109.55
2023-07-15T11:29:14.497Z,93.40
2023-07-15T11:31:42.499Z,99.63
2023-07-15T11:34:10.503Z,92.57
2023-07-15T11:36:40.430Z,84.80
2023-07-15T11:39:07.717Z,80.13
2023-07-15T11:41:34.915Z,81.35
2023-07-15T11:44:01.403Z,116.72
2023-07-15T11:46:30.088Z,114.57
2023-07-15T11:48:58.045Z,103.22
2023-07-15T11:51:24.675Z,60.05
2023-07-15T11:53:53.554Z,70.43
2023-07-15T11:56:39.082Z,91.28
2023-07-15T11:59:09.959Z,110.78
2023-07-15T12:01:40.838Z,147.53
2023-07-15T12:04:18.641Z,150.55
2023-07-15T12:06:49.400Z,130.80
2023-07-15T12:09:16.564Z,135.40
2023-07-15T12:11:43.241Z,166.40
2023-07-15T12:14:10.419Z,142.95
2023-07-15T12:16:38.293Z,180.45
2023-07-15T12:19:06.317Z,184.85
2023-07-15T12:21:32.806Z,256.83
2023-07-15T12:23:59.532Z,157.00
2023-07-15T12:26:26.329Z,210.48
2023-07-15T12:28:53.175Z,239.38
2023-07-15T12:31:19.948Z,176.07
2023-07-15T12:33:46.729Z,319.35
2023-07-15T12:36:15.537Z,359.15
2023-07-15T12:38:42.803Z,350.35
2023-07-15T12:41:09.683Z,585.50
2023-07-15T12:43:36.930Z,270.35
2023-07-15T12:46:04.095Z,257.02
2023-07-15T12:48:31.169Z,203.35
2023-07-15T12:50:58.143Z,224.52
2023-07-15T12:53:25.556Z,168.68
2023-07-15T12:55:55.066Z,219.07
2023-07-15T12:58:22.550Z,156.90
2023-07-15T13:00:49.956Z,107.72
2023-07-15T13:03:16.556Z,128.25
2023-07-15T13:05:43.132Z,183.77
2023-07-15T13:08:09.712Z,165.57
2023-07-15T13:10:36.139Z,155.77
2023-07-15T13:13:02.607Z,143.52
2023-07-15T13:15:29.164Z,146.68
2023-07-15T13:17:55.664Z,148.85
2023-07-15T13:20:22.178Z,174.68
2023-07-15T13:22:48.712Z,143.55
2023-07-15T13:25:15.203Z,143.43
2023-07-15T13:27:41.695Z,187.10
2023-07-15T13:30:08.813Z,131.73
2023-07-15T13:32:35.275Z,153.40
2023-07-15T13:35:01.850Z,158.57
2023-07-15T13:37:28.284Z,172.18
2023-07-15T13:39:54.764Z,169.65
2023-07-15T13:42:22.978Z,73.68
2023-07-15T13:44:51.367Z,138.73
2023-07-15T13:47:18.316Z,129.98
2023-07-15T13:49:45.174Z,113.78
2023-07-15T13:52:11.649Z,138.35
2023-07-15T13:54:38.224Z,157.65
2023-07-15T13:57:04.959Z,141.63
2023-07-15T13:59:31.537Z,154.98
2023-07-15T14:01:58.062Z,129.63
2023-07-15T14:04:24.511Z,147.98
2023-07-15T14:06:51.059Z,99.05
2023-07-15T14:09:17.506Z,156.95
2023-07-15T14:11:45.860Z,319.88
2023-07-15T14:14:15.142Z,246.57
2023-07-15T14:16:41.668Z,503.65
2023-07-15T14:19:08.140Z,304.35
2023-07-15T14:21:34.601Z,177.40
2023-07-15T14:24:04.799Z,470.98
2023-07-15T14:26:32.448Z,343.55
2023-07-15T14:28:58.915Z,390.35
2023-07-15T14:31:25.457Z,419.10
2023-07-15T14:33:55.133Z,507.75
2023-07-15T14:36:25.699Z,950.58
2023-07-15T14:38:52.747Z,528.20
2023-07-15T14:41:19.734Z,519.38
2023-07-15T14:43:46.353Z,544.17
2023-07-15T14:46:12.881Z,339.95
2023-07-15T14:48:40.416Z,415.10
2023-07-15T14:51:07.026Z,543.08
2023-07-15T14:53:33.463Z,526.55
2023-07-15T14:56:00.144Z,584.80
2023-07-15T14:58:26.626Z,710.13
2023-07-15T15:00:53.121Z,656.08
2023-07-15T15:03:19.749Z,981.13
2023-07-15T15:05:46.326Z,1449.55
2023-07-15T15:08:13.082Z,867.10
2023-07-15T15:10:40.118Z,1034.05
2023-07-15T15:13:06.693Z,831.35
2023-07-15T15:15:33.376Z,832.20
2023-07-15T15:17:59.936Z,946.85
2023-07-15T15:20:26.532Z,819.83
2023-07-15T15:22:53.109Z,1278.00
2023-07-15T15:25:19.640Z,1035.32
2023-07-15T15:27:46.155Z,1484.78
2023-07-15T15:30:15.244Z,1325.13
2023-07-15T15:32:42.301Z,1419.35
2023-07-15T15:35:09.189Z,1600.13
2023-07-15T15:37:35.746Z,1983.28
2023-07-15T15:40:02.208Z,1557.15
2023-07-15T15:42:28.661Z,1970.63
2023-07-15T15:44:56.956Z,1651.43
2023-07-15T15:47:23.390Z,1133.82
2023-07-15T15:49:49.825Z,1962.10
2023-07-15T15:52:16.369Z,1999.90
2023-07-15T15:54:42.859Z,1999.90
2023-07-15T15:57:09.286Z,1590.28
2023-07-15T15:59:35.867Z,1928.93
2023-07-15T16:02:02.336Z,1999.90
2023-07-15T16:04:28.908Z,1897.60
2023-07-15T16:06:55.767Z,1999.90
2023-07-15T16:09:22.304Z,1866.15
2023-07-15T16:11:48.756Z,1999.90
2023-07-15T16:14:15.669Z,1641.82
2023-07-15T16:16:42.200Z,1549.40
2023-07-15T16:19:10.610Z,1895.28
2023-07-15T16:21:37.503Z,1298.10
2023-07-15T16:24:04.160Z,1598.55
2023-07-15T16:26:30.598Z,1997.47
2023-07-15T16:28:57.041Z,1999.90
2023-07-15T16:31:23.535Z,1914.88
2023-07-15T16:33:49.979Z,1277.55
2023-07-15T16:36:16.465Z,1902.80
2023-07-15T16:38:42.879Z,1765.40
2023-07-15T16:41:09.356Z,1999.70
2023-07-15T16:43:36.280Z,1782.35
2023-07-15T16:46:03.072Z,650.42
2023-07-15T16:48:29.570Z,1999.90
2023-07-15T16:50:56.023Z,1999.90
2023-07-15T16:53:23.203Z,1999.90
2023-07-15T16:55:49.852Z,1999.90
2023-07-15T16:58:16.286Z,843.60
2023-07-15T17:00:42.778Z,1999.90
2023-07-15T17:03:09.703Z,1681.40
2023-07-15T17:05:36.176Z,1999.90
2023-07-15T17:08:02.629Z,1808.78
2023-07-15T17:10:29.062Z,1849.10
2023-07-15T17:12:55.489Z,1845.20
2023-07-15T17:15:21.975Z,1608.53
2023-07-15T17:17:48.520Z,1858.40
2023-07-15T17:20:15.036Z,1665.57
2023-07-15T17:22:41.494Z,1999.90
2023-07-15T17:25:08.220Z,1999.90
2023-07-15T17:27:34.711Z,1999.90
2023-07-15T17:30:01.398Z,1999.90
2023-07-15T17:32:27.912Z,1999.90
2023-07-15T17:34:54.372Z,1824.38
2023-07-15T17:37:21.438Z,1999.90
2023-07-15T17:39:47.900Z,1156.88
2023-07-15T17:42:14.315Z,1781.90
2023-07-15T17:44:40.723Z,1820.45
2023-07-15T17:47:07.149Z,1856.82
2023-07-15T17:49:33.560Z,1586.97
2023-07-15T17:52:00.127Z,1817.68
2023-07-15T17:54:27.624Z,1875.53
2023-07-15T17:56:55.329Z,968.83
2023-07-15T17:59:22.120Z,1999.90
2023-07-15T18:01:48.750Z,1343.95
2023-07-15T18:04:15.297Z,1061.90
2023-07-15T18:06:41.706Z,1867.75
2023-07-15T18:09:10.219Z,1621.22
2023-07-15T18:11:37.294Z,1513.82
2023-07-15T18:14:04.621Z,1950.40
2023-07-15T18:16:31.459Z,1402.72
2023-07-15T18:18:58.006Z,1983.32
2023-07-15T18:21:24.439Z,1763.55
2023-07-15T18:23:52.788Z,1838.47
2023-07-15T18:26:19.246Z,1991.13
2023-07-15T18:28:45.759Z,1999.90
2023-07-15T18:31:12.326Z,1840.03
2023-07-15T18:33:38.804Z,1465.25
2023-07-15T18:36:05.548Z,1966.65
2023-07-15T18:38:31.959Z,1774.28
2023-07-15T18:40:58.402Z,1459.88
2023-07-15T18:43:24.828Z,1803.15
2023-07-15T18:45:51.239Z,1584.20
2023-07-15T18:48:17.675Z,1184.47
2023-07-15T18:50:44.120Z,1671.45
2023-07-15T18:53:10.687Z,1999.90
2023-07-15T18:55:37.124Z,1999.90
2023-07-15T18:58:03.616Z,1798.65
2023-07-15T19:00:30.070Z,1754.80
2023-07-15T19:02:56.604Z,1635.68
2023-07-15T19:05:23.210Z,1948.95
2023-07-15T19:07:49.655Z,1993.40
2023-07-15T19:10:16.196Z,1999.90
2023-07-15T19:12:42.643Z,1829.88
2023-07-15T19:15:09.328Z,1514.72
2023-07-15T19:17:36.156Z,1377.93
2023-07-15T19:20:02.717Z,1999.90
2023-07-15T19:22:29.264Z,1999.90
2023-07-15T19:24:55.765Z,798.88
2023-07-15T19:27:22.268Z,1896.45
2023-07-15T19:29:48.693Z,1627.82
2023-07-15T19:32:15.443Z,1645.63
2023-07-15T19:34:41.923Z,1132.03
2023-07-15T19:37:08.396Z,1867.60
2023-07-15T19:39:34.846Z,723.58
2023-07-15T19:42:01.570Z,928.05
2023-07-15T19:44:28.050Z,421.48
2023-07-15T19:46:54.528Z,438.55
2023-07-15T19:49:20.961Z,483.23
2023-07-15T19:51:47.491Z,389.05
2023-07-15T19:54:14.285Z,297.80
2023-07-15T19:56:40.990Z,196.68
2023-07-15T19:59:07.785Z,187.65
2023-07-15T20:01:34.749Z,305.80
2023-07-15T20:04:01.646Z,199.18
2023-07-15T20:06:28.176Z,266.25
2023-07-15T20:08:54.618Z,324.83
2023-07-15T20:11:21.078Z,356.55
2023-07-15T20:13:47.549Z,425.80
2023-07-15T20:16:14.330Z,401.77
2023-07-15T20:18:41.096Z,353.95
2023-07-15T20:21:07.716Z,442.52
2023-07-15T20:23:34.147Z,666.58
2023-07-15T20:26:00.609Z,1192.53
2023-07-15T20:28:27.044Z,685.80
2023-07-15T20:30:58.626Z,640.40
2023-07-15T20:33:25.030Z,719.67
2023-07-15T20:35:51.502Z,625.97
2023-07-15T20:38:17.943Z,611.30
2023-07-15T20:40:55.451Z,627.25
2023-07-15T20:43:24.048Z,541.53
2023-07-15T20:45:50.524Z,563.88
2023-07-15T20:48:17.063Z,984.42
2023-07-15T20:50:43.522Z,961.97
2023-07-15T20:53:10.057Z,1185.72
2023-07-15T20:55:40.518Z,1567.63
2023-07-15T20:58:07.166Z,1943.95
2023-07-15T21:00:33.721Z,1999.90
2023-07-15T21:03:00.357Z,1429.65
2023-07-15T21:05:26.821Z,907.15
2023-07-15T21:07:53.260Z,865.00
2023-07-15T21:10:19.793Z,1223.55
2023-07-15T21:12:46.280Z,874.47
2023-07-15T21:15:12.745Z,1277.85
2023-07-15T21:17:39.304Z,700.03
2023-07-15T21:20:06.243Z,840.30
2023-07-15T21:22:32.673Z,1114.57
2023-07-15T21:24:59.119Z,1999.90
2023-07-15T21:27:25.587Z,1377.10
2023-07-15T21:29:52.030Z,1666.35
2023-07-15T21:32:18.464Z,1186.10
2023-07-15T21:34:46.625Z,1509.97
2023-07-15T21:37:14.518Z,1403.05
2023-07-15T21:39:41.065Z,1482.90
2023-07-15T21:42:07.573Z,1238.93
2023-07-15T21:44:34.021Z,1070.35
2023-07-15T21:47:00.459Z,1393.80
2023-07-15T21:49:26.916Z,1173.57
2023-07-15T21:51:53.350Z,1056.10
2023-07-15T21:54:20.311Z,821.13
2023-07-15T21:56:46.749Z,689.80
2023-07-15T21:59:13.186Z,666.35
2023-07-15T22:01:39.716Z,835.28
2023-07-15T22:04:06.219Z,514.60
2023-07-15T22:06:33.558Z,488.25
2023-07-15T22:09:00.007Z,465.73
2023-07-15T22:11:26.447Z,459.45
2023-07-15T22:13:52.870Z,383.00
2023-07-15T22:16:19.600Z,455.75
2023-07-15T22:18:46.372Z,431.05
2023-07-15T22:21:12.834Z,454.85
2023-07-15T22:23:39.302Z,640.72
2023-07-15T22:26:05.801Z,606.05
2023-07-15T22:28:32.353Z,631.88
2023-07-15T22:30:58.861Z,1347.30
2023-07-15T22:33:25.359Z,639.50
2023-07-15T22:35:51.790Z,695.33
2023-07-15T22:38:18.238Z,1250.40
2023-07-15T22:40:44.685Z,908.53
2023-07-15T22:43:11.127Z,901.80
2023-07-15T22:45:45.364Z,874.03
2023-07-15T22:48:18.845Z,1050.45
2023-07-15T22:50:45.329Z,832.47
2023-07-15T22:53:11.822Z,878.70
2023-07-15T22:55:38.264Z,646.75
2023-07-15T22:58:04.700Z,470.65
2023-07-15T23:00:31.262Z,619.10
2023-07-15T23:02:57.770Z,339.00
2023-07-15T23:05:24.397Z,267.70
2023-07-15T23:07:50.815Z,270.70
2023-07-15T23:10:17.336Z,367.95
2023-07-15T23:12:43.832Z,339.33
2023-07-15T23:15:10.866Z,317.60
2023-07-15T23:17:37.513Z,368.83
2023-07-15T23:20:06.793Z,608.45
2023-07-15T23:22:36.437Z,501.60
2023-07-15T23:25:03.844Z,561.50
2023-07-15T23:27:30.749Z,535.85
2023-07-15T23:29:57.404Z,524.67
2023-07-15T23:32:26.180Z,439.70
2023-07-15T23:34:54.499Z,439.13
2023-07-15T23:37:21.950Z,514.97
2023-07-15T23:39:50.642Z,380.40
2023-07-15T23:42:17.150Z,385.10
2023-07-15T23:44:43.662Z,413.17
2023-07-15T23:47:10.215Z,423.10
2023-07-15T23:49:37.625Z,421.00
2023-07-15T23:52:04.259Z,626.03
2023-07-15T23:54:30.739Z,518.50
2023-07-15T23:56:57.250Z,465.40
2023-07-15T23:59:23.702Z,452.30
